• Join FlightAware (Why Join?)
  • Login
  • US Flag 
07:39AM EST


 

Airport Tracker/Info


-or-


 

Live Flight TrackerFlight Track Log ✈ CHQ5098 ✈ 22-Apr-2013 ✈ KORD - KGRB

Flight Track Log - Related Links

Times and Time Zones

All times are in EDT time to prevent confusion due to time zone crossing. See the CHQ5098 flight status page for this flight to view local times or setup timezone preferences in your user account.

Time Position Orientation Groundspeed Altitude Reporting Facility
EDT Latitude Longitude Course Direction KTS MPH feet Rate Location/Type
09:55PM 42.0383 -87.8319 352° North 206 237 4,000  Level Chicago Center
09:55PM 42.0833 -87.7833 39° Northeast 267 307 5,000 540 Climbing Chicago TRACON
09:56PM 42.1918 -87.9709 340° North  Level FlightAware Approximate
09:57PM 42.2668 -87.9959 350° North  Level FlightAware Approximate
09:57PM 42.1667 -87.7833 360° North 288 331 5,000  Level Chicago TRACON
09:57PM 42.1908 -87.7908 347° North 290 334 5,000 1,620 Level Chicago Center
09:58PM 42.3431 -88.0149 350° North  Level FlightAware Approximate
09:58PM 42.2644 -87.8269 340° North 286 329 7,200  Level Chicago Center
09:59PM 42.4161 -88.0497 340° North  Level FlightAware Approximate
09:59PM 42.3414 -87.8261 360° North 295 339 10,000  Level Chicago Center
10:00PM 42.4983 -88.0663 352° North  Level FlightAware Approximate
10:00PM 42.4267 -87.8325 357° North 304 350 12,600  Level Chicago Center
10:02PM 42.6231 -87.8617 354° North 336 387 16,700 1,740 Climbing Chicago Center
10:03PM 42.7247 -87.8744 355° North 362 417 18,000 600 Climbing Chicago Center
10:04PM 42.8319 -87.8906 354° North 384 442 18,000  Level Chicago Center
10:05PM 42.9442 -87.9058 354° North 402 463 18,000  Level Chicago Center
10:06PM 43.0333 -87.9167 355° North 423 487 18,000  Level KMKE
10:07PM 43.1500 -87.9333 354° North 412 474 18,000 -240 Level KMKE
10:07PM 43.1911 -87.9406 353° North 413 475 17,700 -1,260 Descending Chicago Center
10:08PM 43.3050 -87.9558 354° North 414 476 16,300 -1,500 Descending Chicago Center
10:09PM 43.4108 -87.9717 354° North 390 449 14,700 -1,500 Descending Chicago Center
10:10PM 43.5125 -87.9864 354° North 374 430 13,300 -1,320 Descending Chicago Center
10:11PM 43.6128 -88.0011 354° North 366 421 12,000 -1,440 Descending Chicago Center
10:12PM 43.6783 -88.0108 354° North 363 418 11,100 -1,320 Descending Minneapolis Center
10:13PM 43.7758 -88.0267 353° North 356 410 10,000 -540 Descending Minneapolis Center
10:14PM 43.8711 -88.0422 353° North 348 400 10,000  Level Minneapolis Center
10:15PM 43.9644 -88.0583 353° North 341 392 10,000 -900 Level Minneapolis Center
10:16PM 44.0431 -88.0708 353° North 294 338 8,200 -1,920 Descending Minneapolis Center
10:17PM 44.1231 -88.0850 353° North 289 333 6,100 -2,100 Descending Minneapolis Center
10:18PM 44.2164 -88.1011 353° North 290 334 4,000 -1,800 Descending Minneapolis Center
10:19PM 44.2922 -88.1194 350° North 283 326 2,500 -780 Descending Minneapolis Center
10:20PM 44.3664 -88.1400 349° North 277 319 2,500 -300 Level Minneapolis Center
10:21PM 44.4222 -88.1358 North 250 288 2,000 -540 Descending Minneapolis Center